createdAt,value
2023-01-28T00:00:22.927Z,0.99
2023-01-28T00:01:27.233Z,0.98
2023-01-28T00:02:31.401Z,0.98
2023-01-28T00:03:35.587Z,0.97
2023-01-28T00:04:39.699Z,0.98
2023-01-28T00:05:46.905Z,0.99
2023-01-28T00:06:50.115Z,1.00
2023-01-28T00:07:54.126Z,1.02
2023-01-28T00:08:58.377Z,1.04
2023-01-28T00:10:02.560Z,1.05
2023-01-28T00:11:06.845Z,1.07
2023-01-28T00:12:10.951Z,1.07
2023-01-28T00:13:15.117Z,1.08
2023-01-28T00:14:19.353Z,1.07
2023-01-28T00:15:23.620Z,1.07
2023-01-28T00:16:27.868Z,1.07
2023-01-28T00:17:31.814Z,1.07
2023-01-28T00:18:36.080Z,1.08
2023-01-28T00:19:40.271Z,1.10
2023-01-28T00:20:44.337Z,1.10
2023-01-28T00:21:48.609Z,1.10
2023-01-28T00:22:52.777Z,1.11
2023-01-28T00:23:57.124Z,1.11
2023-01-28T00:25:01.141Z,1.11
2023-01-28T00:26:05.357Z,1.09
2023-01-28T00:27:23.657Z,1.07
2023-01-28T00:28:26.620Z,1.07
2023-01-28T00:29:30.753Z,1.06
2023-01-28T00:30:35.033Z,1.04
2023-01-28T00:31:39.111Z,0.99
2023-01-28T00:32:44.470Z,0.93
2023-01-28T00:33:47.434Z,0.86
2023-01-28T00:34:51.576Z,0.82
2023-01-28T00:35:55.772Z,0.80
2023-01-28T00:36:59.935Z,0.83
2023-01-28T00:38:04.084Z,0.86
2023-01-28T00:39:08.228Z,0.88
2023-01-28T00:40:12.403Z,0.89
2023-01-28T00:41:22.629Z,0.86
2023-01-28T00:42:25.342Z,0.85
2023-01-28T00:43:29.484Z,0.84
2023-01-28T00:44:33.656Z,0.85
2023-01-28T00:45:37.853Z,0.80
2023-01-28T00:46:42.165Z,0.78
2023-01-28T00:47:46.133Z,0.76
2023-01-28T00:48:50.293Z,0.77
2023-01-28T00:49:54.466Z,0.76
2023-01-28T00:50:58.751Z,0.73
2023-01-28T00:52:02.919Z,0.74
2023-01-28T00:53:07.077Z,0.77
2023-01-28T00:54:11.220Z,0.80
2023-01-28T00:55:15.756Z,0.84
2023-01-28T00:56:19.603Z,0.88
2023-01-28T00:57:23.721Z,0.91
2023-01-28T00:58:27.965Z,0.95
2023-01-28T00:59:32.186Z,0.96
2023-01-28T01:00:36.389Z,0.98
2023-01-28T01:01:40.712Z,1.00
2023-01-28T01:02:44.933Z,1.01
2023-01-28T01:03:49.011Z,1.00
2023-01-28T01:04:53.155Z,1.00
2023-01-28T01:05:57.345Z,1.02
2023-01-28T01:07:01.570Z,1.02
2023-01-28T01:08:05.695Z,0.96
2023-01-28T01:09:09.869Z,0.90
2023-01-28T01:10:14.104Z,0.87
2023-01-28T01:11:18.233Z,0.83
2023-01-28T01:12:22.441Z,0.82
2023-01-28T01:13:26.606Z,0.85
2023-01-28T01:14:30.717Z,0.87
2023-01-28T01:15:34.904Z,0.88
2023-01-28T01:16:39.069Z,0.91
2023-01-28T01:17:43.232Z,0.91
2023-01-28T01:18:47.414Z,0.91
2023-01-28T01:19:51.582Z,0.89
2023-01-28T01:20:55.770Z,0.84
2023-01-28T01:21:59.971Z,0.81
2023-01-28T01:23:04.205Z,0.78
2023-01-28T01:24:08.353Z,0.78
2023-01-28T01:26:39.448Z,0.80
2023-01-28T01:27:43.529Z,0.80
2023-01-28T01:28:47.725Z,0.78
2023-01-28T01:29:51.937Z,0.77
2023-01-28T01:30:56.067Z,0.73
2023-01-28T01:32:00.295Z,0.70
2023-01-28T01:33:04.377Z,0.69
2023-01-28T01:34:08.580Z,0.59
2023-01-28T01:35:13.249Z,0.54
2023-01-28T01:36:16.885Z,0.54
2023-01-28T01:37:21.074Z,0.56
2023-01-28T01:38:25.332Z,0.53
2023-01-28T01:39:29.486Z,0.53
2023-01-28T01:40:33.708Z,0.53
2023-01-28T01:41:37.882Z,0.56
2023-01-28T01:42:42.030Z,0.61
2023-01-28T01:43:46.230Z,0.66
2023-01-28T01:44:50.370Z,0.71
2023-01-28T01:45:54.577Z,0.74
2023-01-28T01:46:58.787Z,0.77
2023-01-28T01:48:02.950Z,0.80
2023-01-28T01:49:07.113Z,0.85
2023-01-28T01:50:11.259Z,0.88
2023-01-28T01:51:15.359Z,0.88
2023-01-28T01:52:19.458Z,0.89
2023-01-28T01:53:23.610Z,0.89
2023-01-28T01:54:27.817Z,0.91
2023-01-28T01:55:32.136Z,0.89
2023-01-28T01:56:36.231Z,0.84
2023-01-28T01:57:40.407Z,0.83
2023-01-28T01:58:44.638Z,0.84
2023-01-28T01:59:48.893Z,0.85
2023-01-28T02:00:52.990Z,0.87
2023-01-28T02:01:57.188Z,0.88
2023-01-28T02:03:01.482Z,0.89
2023-01-28T02:04:05.602Z,0.89
2023-01-28T02:05:09.816Z,0.84
2023-01-28T02:06:13.844Z,0.85
2023-01-28T02:07:18.146Z,0.86
2023-01-28T02:08:22.204Z,0.86
2023-01-28T02:09:26.360Z,0.86
2023-01-28T02:10:30.532Z,0.83
2023-01-28T02:11:34.707Z,0.78
2023-01-28T02:12:38.882Z,0.74
2023-01-28T02:13:43.064Z,0.69
2023-01-28T02:14:47.262Z,0.62
2023-01-28T02:15:51.438Z,0.60
2023-01-28T02:16:55.629Z,0.60
2023-01-28T02:17:59.753Z,0.63
2023-01-28T02:19:03.928Z,0.66
2023-01-28T02:20:08.117Z,0.69
2023-01-28T02:21:12.281Z,0.73
2023-01-28T02:22:16.399Z,0.78
2023-01-28T02:23:20.694Z,0.82
2023-01-28T02:24:25.048Z,0.80
2023-01-28T02:25:29.054Z,0.79
2023-01-28T02:26:34.084Z,0.78
2023-01-28T02:27:38.795Z,0.80
2023-01-28T02:28:42.597Z,0.79
2023-01-28T02:29:46.731Z,0.78
2023-01-28T02:30:51.087Z,0.76
2023-01-28T02:31:55.198Z,0.66
2023-01-28T02:32:59.329Z,0.63
2023-01-28T02:34:03.451Z,0.65
2023-01-28T02:35:07.646Z,0.69
2023-01-28T02:36:11.902Z,0.72
2023-01-28T02:37:16.272Z,0.70
2023-01-28T02:38:20.244Z,0.70
2023-01-28T02:39:24.540Z,0.71
2023-01-28T02:40:28.715Z,0.73
2023-01-28T02:41:32.902Z,0.76
2023-01-28T02:42:37.036Z,0.78
2023-01-28T02:43:41.219Z,0.78
2023-01-28T02:44:45.277Z,0.79
2023-01-28T02:45:49.501Z,0.76
2023-01-28T02:46:53.745Z,0.73
2023-01-28T02:47:57.885Z,0.72
2023-01-28T02:49:02.070Z,0.70
2023-01-28T02:50:09.284Z,0.70
2023-01-28T02:51:12.640Z,0.71
2023-01-28T02:52:16.743Z,0.73
2023-01-28T02:53:20.913Z,0.75
2023-01-28T02:54:25.093Z,0.79
2023-01-28T02:55:29.373Z,0.82
2023-01-28T02:56:33.483Z,0.84
2023-01-28T02:57:37.653Z,0.85
2023-01-28T02:58:41.859Z,0.87
2023-01-28T02:59:46.065Z,0.88
2023-01-28T03:00:50.235Z,0.88
2023-01-28T03:01:54.468Z,0.87
2023-01-28T03:02:58.643Z,0.88
2023-01-28T03:04:16.789Z,0.89
2023-01-28T03:05:19.340Z,0.90
2023-01-28T03:06:23.573Z,0.92
2023-01-28T03:07:27.745Z,0.92
2023-01-28T03:08:31.890Z,0.89
2023-01-28T03:09:36.088Z,0.80
2023-01-28T03:10:40.252Z,0.79
2023-01-28T03:11:44.428Z,0.80
2023-01-28T03:12:48.587Z,0.81
2023-01-28T03:13:52.790Z,0.82
2023-01-28T03:14:56.942Z,0.81
2023-01-28T03:16:01.256Z,0.76
2023-01-28T03:17:05.335Z,0.72
2023-01-28T03:18:09.534Z,0.68
2023-01-28T03:19:13.695Z,0.67
2023-01-28T03:20:34.041Z,0.66
2023-01-28T03:21:37.098Z,0.67
2023-01-28T03:22:41.270Z,0.70
2023-01-28T03:23:45.381Z,0.73
2023-01-28T03:24:49.533Z,0.75
2023-01-28T03:25:53.668Z,0.72
2023-01-28T03:27:03.792Z,0.64
2023-01-28T03:28:06.589Z,0.61
2023-01-28T03:29:10.924Z,0.58
2023-01-28T03:30:14.954Z,0.55
2023-01-28T03:31:19.185Z,0.55
2023-01-28T03:32:23.380Z,0.52
2023-01-28T03:33:33.559Z,0.49
2023-01-28T03:34:36.337Z,0.46
2023-01-28T03:35:40.531Z,0.44
2023-01-28T03:36:44.682Z,0.45
2023-01-28T03:37:48.945Z,0.47
2023-01-28T03:39:07.192Z,0.43
2023-01-28T03:40:10.270Z,0.38
2023-01-28T03:41:14.383Z,0.35
2023-01-28T03:42:18.527Z,0.39
2023-01-28T03:43:22.773Z,0.43
2023-01-28T03:44:26.751Z,0.48
2023-01-28T03:45:31.072Z,0.54
2023-01-28T03:46:35.238Z,0.58
2023-01-28T03:47:39.345Z,0.65
2023-01-28T03:48:43.519Z,0.70
2023-01-28T03:49:47.780Z,0.75
2023-01-28T03:50:51.920Z,0.78
2023-01-28T03:51:56.002Z,0.81
2023-01-28T03:53:00.263Z,0.83
2023-01-28T03:54:04.339Z,0.84
2023-01-28T03:55:08.623Z,0.84
2023-01-28T03:56:12.786Z,0.84
2023-01-28T03:57:16.867Z,0.86
2023-01-28T03:58:28.677Z,0.86
2023-01-28T03:59:31.247Z,0.87
2023-01-28T04:00:35.365Z,0.86
2023-01-28T04:01:39.465Z,0.86
2023-01-28T04:02:43.694Z,0.86
2023-01-28T04:03:47.838Z,0.82
2023-01-28T04:04:52.024Z,0.75
2023-01-28T04:05:56.233Z,0.67
2023-01-28T04:07:00.402Z,0.62
2023-01-28T04:08:04.738Z,0.58
2023-01-28T04:09:08.853Z,0.59
2023-01-28T04:10:13.073Z,0.61
2023-01-28T04:11:17.295Z,0.64
2023-01-28T04:12:21.480Z,0.66
2023-01-28T04:13:25.633Z,0.67
2023-01-28T04:14:29.902Z,0.67
2023-01-28T04:15:34.033Z,0.66
2023-01-28T04:16:38.137Z,0.69
2023-01-28T04:17:42.323Z,0.69
2023-01-28T04:18:46.574Z,0.67
2023-01-28T04:19:50.752Z,0.66
2023-01-28T04:20:54.902Z,0.66
2023-01-28T04:21:59.172Z,0.66
2023-01-28T04:23:03.303Z,0.66
2023-01-28T04:24:07.782Z,0.65
2023-01-28T04:25:11.717Z,0.65
2023-01-28T04:26:15.784Z,0.67
2023-01-28T04:27:19.939Z,0.67
2023-01-28T04:28:24.196Z,0.68
2023-01-28T04:29:28.312Z,0.67
2023-01-28T04:30:32.570Z,0.67
2023-01-28T04:31:36.772Z,0.65
2023-01-28T04:32:40.808Z,0.64
2023-01-28T04:33:45.128Z,0.64
2023-01-28T04:34:49.282Z,0.66
2023-01-28T04:35:53.480Z,0.66
2023-01-28T04:36:57.637Z,0.66
2023-01-28T04:38:01.909Z,0.65
2023-01-28T04:39:06.067Z,0.65
2023-01-28T04:40:10.240Z,0.65
2023-01-28T04:41:14.400Z,0.66
2023-01-28T04:42:18.630Z,0.66
2023-01-28T04:43:22.832Z,0.68
2023-01-28T04:44:26.991Z,0.69
2023-01-28T04:45:31.074Z,0.72
2023-01-28T04:46:35.371Z,0.74
2023-01-28T04:47:39.513Z,0.73
2023-01-28T04:48:43.820Z,0.70
2023-01-28T04:49:47.971Z,0.65
2023-01-28T04:50:52.147Z,0.60
2023-01-28T04:51:56.472Z,0.58
2023-01-28T04:53:00.603Z,0.58
2023-01-28T04:54:04.778Z,0.59
2023-01-28T04:55:09.072Z,0.61
2023-01-28T04:56:13.259Z,0.63
2023-01-28T04:57:17.394Z,0.65
2023-01-28T04:58:21.694Z,0.66
2023-01-28T04:59:25.769Z,0.69
2023-01-28T05:00:29.932Z,0.70
2023-01-28T05:01:34.050Z,0.73
2023-01-28T05:02:38.378Z,0.73
2023-01-28T05:03:42.511Z,0.74
2023-01-28T05:04:46.594Z,0.73
2023-01-28T05:05:50.822Z,0.75
2023-01-28T05:06:58.117Z,0.74
2023-01-28T05:08:01.410Z,0.76
2023-01-28T05:09:05.644Z,0.77
2023-01-28T05:10:09.811Z,0.78
2023-01-28T05:11:13.987Z,0.78
2023-01-28T05:12:18.398Z,0.77
2023-01-28T05:13:22.556Z,0.75
2023-01-28T05:14:26.734Z,0.71
2023-01-28T05:15:30.955Z,0.63
2023-01-28T05:16:35.237Z,0.54
2023-01-28T05:17:39.545Z,0.52
2023-01-28T05:18:44.852Z,0.49
2023-01-28T05:19:47.743Z,0.63
2023-01-28T05:20:51.912Z,0.36
2023-01-28T05:21:56.075Z,0.33
2023-01-28T05:23:00.525Z,0.35
2023-01-28T05:24:04.653Z,0.38
2023-01-28T05:25:08.781Z,0.42
2023-01-28T05:26:12.821Z,0.46
2023-01-28T05:27:17.263Z,0.50
2023-01-28T05:28:21.447Z,0.54
2023-01-28T05:29:25.585Z,0.55
2023-01-28T05:30:29.846Z,0.55
2023-01-28T05:31:34.001Z,0.56
2023-01-28T05:32:38.288Z,0.54
2023-01-28T05:33:42.429Z,0.55
2023-01-28T05:34:46.605Z,0.55
2023-01-28T05:35:50.772Z,0.58
2023-01-28T05:36:54.970Z,0.60
2023-01-28T05:37:59.159Z,0.59
2023-01-28T05:39:04.264Z,0.57
2023-01-28T05:40:08.081Z,0.55
2023-01-28T05:41:12.175Z,0.57
2023-01-28T05:42:16.479Z,0.56
2023-01-28T05:43:20.617Z,0.56
2023-01-28T05:44:24.782Z,0.51
2023-01-28T05:45:28.998Z,0.46
2023-01-28T05:46:34.126Z,0.42
2023-01-28T05:47:37.810Z,0.39
2023-01-28T05:48:41.959Z,0.39
2023-01-28T05:49:46.744Z,0.40
2023-01-28T05:50:51.468Z,0.40
2023-01-28T05:51:55.249Z,0.39
2023-01-28T05:52:59.513Z,0.36
2023-01-28T05:54:03.608Z,0.34
2023-01-28T05:55:07.873Z,0.32
2023-01-28T05:56:12.029Z,0.31
2023-01-28T05:57:16.048Z,0.31
2023-01-28T05:58:20.334Z,0.33
2023-01-28T05:59:24.559Z,0.36
2023-01-28T06:00:28.724Z,0.38
2023-01-28T06:01:32.884Z,0.41
2023-01-28T06:02:37.220Z,0.42
2023-01-28T06:03:41.249Z,0.42
2023-01-28T06:04:45.536Z,0.43
2023-01-28T06:05:49.673Z,0.44
2023-01-28T06:06:53.789Z,0.45
2023-01-28T06:07:58.012Z,0.47
2023-01-28T06:09:02.132Z,0.47
2023-01-28T06:10:06.283Z,0.48
2023-01-28T06:11:10.364Z,0.50
2023-01-28T06:12:14.595Z,0.52
2023-01-28T06:13:18.811Z,0.54
2023-01-28T06:14:22.898Z,0.56
2023-01-28T06:15:27.149Z,0.56
2023-01-28T06:16:31.315Z,0.55
2023-01-28T06:17:35.513Z,0.54
2023-01-28T06:18:39.680Z,0.53
2023-01-28T06:19:43.919Z,0.52
2023-01-28T06:21:02.164Z,0.52
2023-01-28T06:22:05.051Z,0.52
2023-01-28T06:23:09.075Z,0.54
2023-01-28T06:24:13.343Z,0.55
2023-01-28T06:25:17.425Z,0.57
2023-01-28T06:26:21.615Z,0.57
2023-01-28T06:27:25.777Z,0.58
2023-01-28T06:28:29.874Z,0.57
2023-01-28T06:29:48.053Z,0.58
2023-01-28T06:30:50.990Z,0.58
2023-01-28T06:31:55.233Z,0.58
2023-01-28T06:32:59.281Z,0.59
2023-01-28T06:34:03.674Z,0.61
2023-01-28T06:35:07.661Z,0.61
2023-01-28T06:36:11.839Z,0.60
2023-01-28T06:37:15.923Z,0.61
2023-01-28T06:38:20.132Z,0.60
2023-01-28T06:39:24.411Z,0.58
2023-01-28T06:40:28.503Z,0.54
2023-01-28T06:41:32.681Z,0.50
2023-01-28T06:42:36.829Z,0.41
2023-01-28T06:43:41.036Z,0.33
2023-01-28T06:44:45.075Z,0.29
2023-01-28T06:45:49.280Z,0.27
2023-01-28T06:46:53.563Z,0.28
2023-01-28T06:47:57.645Z,0.30
2023-01-28T06:49:01.821Z,0.32
2023-01-28T06:50:06.014Z,0.34
2023-01-28T06:51:10.252Z,0.36
2023-01-28T06:52:14.464Z,0.37
2023-01-28T06:53:18.511Z,0.37
2023-01-28T06:54:22.656Z,0.37
2023-01-28T06:55:26.764Z,0.38
2023-01-28T06:56:30.986Z,0.37
2023-01-28T06:57:35.199Z,0.36
2023-01-28T06:58:40.264Z,0.36
2023-01-28T06:59:44.188Z,0.32
2023-01-28T07:00:48.298Z,0.23
2023-01-28T07:01:52.411Z,0.13
2023-01-28T07:02:56.514Z,0.05
2023-01-28T07:04:00.593Z,0.00
2023-01-28T07:05:04.688Z,-0.02
2023-01-28T07:06:08.787Z,-0.04
2023-01-28T07:07:12.852Z,-0.05
2023-01-28T07:08:17.061Z,-0.05
2023-01-28T07:09:21.219Z,-0.06
2023-01-28T07:10:25.294Z,-0.06
2023-01-28T07:11:29.387Z,-0.05
2023-01-28T07:12:33.605Z,-0.05
2023-01-28T07:13:37.763Z,-0.06
2023-01-28T07:14:41.986Z,-0.06
2023-01-28T07:15:46.104Z,-0.05
2023-01-28T07:16:50.396Z,-0.05
2023-01-28T07:19:21.289Z,-0.12
2023-01-28T07:20:25.434Z,-0.12
2023-01-28T07:21:29.517Z,-0.10
2023-01-28T07:22:33.815Z,-0.06
2023-01-28T07:23:37.917Z,-0.02
2023-01-28T07:24:42.044Z,0.03
2023-01-28T07:25:46.227Z,0.07
2023-01-28T07:26:50.294Z,0.13
2023-01-28T07:27:54.494Z,0.16
2023-01-28T07:28:58.636Z,0.19
2023-01-28T07:30:02.718Z,0.21
2023-01-28T07:31:06.926Z,0.23
2023-01-28T07:32:11.138Z,0.25
2023-01-28T07:33:15.237Z,0.23
2023-01-28T07:34:19.427Z,0.22
2023-01-28T07:35:23.628Z,0.20
2023-01-28T07:36:27.804Z,0.17
2023-01-28T07:37:31.994Z,0.18
2023-01-28T07:38:36.355Z,0.19
2023-01-28T07:39:40.460Z,0.19
2023-01-28T07:40:44.527Z,0.18
2023-01-28T07:41:48.844Z,0.19
2023-01-28T07:42:53.060Z,0.21
2023-01-28T07:43:57.178Z,0.21
2023-01-28T07:45:01.228Z,0.23
2023-01-28T07:46:05.324Z,0.27
2023-01-28T07:47:09.600Z,0.28
2023-01-28T07:48:13.695Z,0.30
2023-01-28T07:49:17.800Z,0.33
2023-01-28T07:50:21.958Z,0.35
2023-01-28T07:51:26.016Z,0.37
2023-01-28T07:52:30.086Z,0.38
2023-01-28T07:53:34.435Z,0.39
2023-01-28T07:54:38.775Z,0.41
2023-01-28T07:55:44.243Z,0.43
2023-01-28T07:56:50.844Z,0.45
2023-01-28T07:57:56.920Z,0.47
2023-01-28T07:59:19.216Z,0.48
2023-01-28T08:00:22.393Z,0.51
2023-01-28T08:01:26.426Z,0.53
2023-01-28T08:02:33.643Z,0.54
2023-01-28T08:03:40.296Z,0.58
2023-01-28T08:04:44.188Z,0.61
2023-01-28T08:05:48.987Z,0.65
2023-01-28T08:06:52.626Z,0.70
2023-01-28T08:07:59.798Z,0.74
2023-01-28T08:09:03.186Z,0.76
2023-01-28T08:10:07.144Z,0.79
2023-01-28T08:11:11.284Z,0.81
2023-01-28T08:12:15.396Z,0.83
2023-01-28T08:13:19.619Z,0.83
2023-01-28T08:14:23.786Z,0.83
2023-01-28T08:15:27.935Z,0.86
2023-01-28T08:16:32.024Z,0.88
2023-01-28T08:17:36.237Z,0.92
2023-01-28T08:18:40.394Z,0.95
2023-01-28T08:19:50.558Z,1.00
2023-01-28T08:20:53.288Z,1.05
2023-01-28T08:21:58.334Z,1.10
2023-01-28T08:23:02.112Z,1.12
2023-01-28T08:24:06.418Z,1.12
2023-01-28T08:25:10.810Z,1.13
2023-01-28T08:26:14.975Z,1.14
2023-01-28T08:27:19.109Z,1.16
2023-01-28T08:28:23.176Z,1.17
2023-01-28T08:29:27.386Z,1.18
2023-01-28T08:30:37.553Z,1.17
2023-01-28T08:31:40.297Z,1.18
2023-01-28T08:32:44.286Z,1.20
2023-01-28T08:33:48.473Z,1.22
2023-01-28T08:34:52.570Z,1.24
2023-01-28T08:35:56.708Z,1.26
2023-01-28T08:37:01.018Z,1.28
2023-01-28T08:38:05.007Z,1.30
2023-01-28T08:39:09.218Z,1.32
2023-01-28T08:40:13.951Z,1.34
2023-01-28T08:41:17.590Z,1.35
2023-01-28T08:42:21.761Z,1.37
2023-01-28T08:43:25.928Z,1.38
2023-01-28T08:44:30.158Z,1.39
2023-01-28T08:45:35.278Z,1.41
2023-01-28T08:46:39.097Z,1.43
2023-01-28T08:47:43.108Z,1.44
2023-01-28T08:48:47.330Z,1.44
2023-01-28T08:49:51.439Z,1.44
2023-01-28T08:50:55.595Z,1.44
2023-01-28T08:51:59.745Z,1.44
2023-01-28T08:53:04.021Z,1.46
2023-01-28T08:54:08.150Z,1.48
2023-01-28T08:55:12.340Z,1.48
2023-01-28T08:56:16.417Z,1.51
2023-01-28T08:57:20.646Z,1.54
2023-01-28T08:58:24.847Z,1.56
2023-01-28T08:59:29.012Z,1.57
2023-01-28T09:00:33.199Z,1.56
2023-01-28T09:01:37.417Z,1.56
2023-01-28T09:02:41.444Z,1.56
2023-01-28T09:03:45.772Z,1.57
2023-01-28T09:04:49.892Z,1.57
2023-01-28T09:05:54.064Z,1.61
2023-01-28T09:06:58.211Z,1.62
2023-01-28T09:08:02.367Z,1.63
2023-01-28T09:09:06.442Z,1.65
2023-01-28T09:10:10.681Z,1.66
2023-01-28T09:11:14.821Z,1.68
2023-01-28T09:12:18.990Z,1.70
2023-01-28T09:13:23.181Z,1.74
2023-01-28T09:14:27.381Z,1.74
2023-01-28T09:15:31.457Z,1.76
2023-01-28T09:16:35.622Z,1.74
2023-01-28T09:17:39.843Z,1.76
2023-01-28T09:18:43.913Z,1.77
2023-01-28T09:19:48.242Z,1.78
2023-01-28T09:20:52.291Z,1.79
2023-01-28T09:21:56.395Z,1.81
2023-01-28T09:23:00.584Z,1.83
2023-01-28T09:24:04.691Z,1.85
2023-01-28T09:25:08.849Z,1.87
2023-01-28T09:26:13.017Z,1.86
2023-01-28T09:27:17.132Z,1.85
2023-01-28T09:28:21.285Z,1.84
2023-01-28T09:29:25.425Z,1.86
2023-01-28T09:30:29.704Z,1.88
2023-01-28T09:31:33.687Z,1.90
2023-01-28T09:32:37.867Z,1.92
2023-01-28T09:33:41.997Z,1.94
2023-01-28T09:34:46.099Z,1.94
2023-01-28T09:35:50.344Z,1.94
2023-01-28T09:36:57.479Z,1.93
2023-01-28T09:38:00.759Z,1.90
2023-01-28T09:39:04.865Z,1.87
2023-01-28T09:40:09.029Z,1.84
2023-01-28T09:41:13.186Z,1.79
2023-01-28T09:42:17.283Z,1.78
2023-01-28T09:43:21.460Z,1.78
2023-01-28T09:44:25.644Z,1.76
2023-01-28T09:45:29.836Z,1.76
2023-01-28T09:46:33.994Z,1.76
2023-01-28T09:47:38.266Z,1.75
2023-01-28T09:48:42.412Z,1.75
2023-01-28T09:49:46.625Z,1.76
2023-01-28T09:50:50.751Z,1.79
2023-01-28T09:51:54.976Z,1.78
2023-01-28T09:52:59.110Z,1.79
2023-01-28T09:54:03.375Z,1.80
2023-01-28T09:55:07.511Z,1.80
2023-01-28T09:56:11.638Z,1.80
2023-01-28T09:57:15.830Z,1.79
2023-01-28T09:58:19.989Z,1.79
2023-01-28T09:59:24.146Z,1.78
2023-01-28T10:00:42.394Z,1.79
2023-01-28T10:01:45.127Z,1.81
2023-01-28T10:02:49.197Z,1.82
2023-01-28T10:03:53.461Z,1.83
2023-01-28T10:04:57.474Z,1.85
2023-01-28T10:06:01.697Z,1.86
2023-01-28T10:07:05.909Z,1.88
2023-01-28T10:08:10.039Z,1.89
2023-01-28T10:09:14.252Z,1.89
2023-01-28T10:10:18.735Z,1.88
2023-01-28T10:11:22.722Z,1.86
2023-01-28T10:12:26.917Z,1.82
2023-01-28T10:13:31.090Z,1.79
2023-01-28T10:14:35.333Z,1.75
2023-01-28T10:15:42.585Z,1.72
2023-01-28T10:16:59.923Z,1.72
2023-01-28T10:18:16.152Z,1.74
2023-01-28T10:19:06.721Z,1.72
2023-01-28T10:20:10.799Z,1.72
2023-01-28T10:21:14.907Z,1.74
2023-01-28T10:22:19.035Z,1.77
2023-01-28T10:23:23.306Z,1.77
2023-01-28T10:24:27.541Z,1.76
2023-01-28T10:25:31.778Z,1.70
2023-01-28T10:26:35.901Z,1.70
2023-01-28T10:27:40.078Z,1.66
2023-01-28T10:28:44.165Z,1.65
2023-01-28T10:29:48.272Z,1.66
2023-01-28T10:30:52.505Z,1.66
2023-01-28T10:31:56.736Z,1.64
2023-01-28T10:33:00.732Z,1.62
2023-01-28T10:34:04.998Z,1.64
2023-01-28T10:35:09.158Z,1.68
2023-01-28T10:36:13.491Z,1.69
2023-01-28T10:37:17.550Z,1.69
2023-01-28T10:38:21.731Z,1.70
2023-01-28T10:39:25.786Z,1.72
2023-01-28T10:40:30.035Z,1.77
2023-01-28T10:41:34.626Z,1.79
2023-01-28T10:42:38.405Z,1.80
2023-01-28T10:43:42.539Z,1.82
2023-01-28T10:44:46.851Z,1.81
2023-01-28T10:45:51.111Z,1.79
2023-01-28T10:46:55.023Z,1.80
2023-01-28T10:47:59.148Z,1.79
2023-01-28T10:49:03.386Z,1.79
2023-01-28T10:50:07.567Z,1.82
2023-01-28T10:51:11.638Z,1.85
2023-01-28T10:52:15.916Z,1.87
2023-01-28T10:53:20.134Z,1.91
2023-01-28T10:54:24.332Z,1.95
2023-01-28T10:55:28.519Z,1.97
2023-01-28T10:56:32.678Z,1.96
2023-01-28T10:57:36.880Z,1.98
2023-01-28T10:58:41.024Z,2.00
2023-01-28T10:59:45.183Z,2.01
2023-01-28T11:00:49.445Z,2.02
2023-01-28T11:01:53.820Z,2.02
2023-01-28T11:02:57.807Z,2.03
2023-01-28T11:04:02.017Z,2.05
2023-01-28T11:05:06.265Z,2.06
2023-01-28T11:06:10.437Z,2.08
2023-01-28T11:07:14.584Z,2.08
2023-01-28T11:08:18.720Z,1.99
2023-01-28T11:09:22.798Z,1.91
2023-01-28T11:10:27.077Z,1.85
2023-01-28T11:11:31.272Z,1.78
2023-01-28T11:12:35.477Z,1.77
2023-01-28T11:13:39.657Z,1.74
2023-01-28T11:14:43.789Z,1.70
2023-01-28T11:15:48.082Z,1.70
2023-01-28T11:16:52.201Z,1.69
2023-01-28T11:17:56.506Z,1.62
2023-01-28T11:19:00.722Z,1.56
2023-01-28T11:20:04.851Z,1.50
2023-01-28T11:21:09.019Z,1.48
2023-01-28T11:22:13.187Z,1.43
2023-01-28T11:23:17.367Z,1.39
2023-01-28T11:24:21.623Z,1.38
2023-01-28T11:25:25.738Z,1.39
2023-01-28T11:26:29.923Z,1.44
2023-01-28T11:27:34.032Z,1.42
2023-01-28T11:28:38.227Z,1.40
2023-01-28T11:29:42.406Z,1.41
2023-01-28T11:30:52.704Z,1.43
2023-01-28T11:31:55.441Z,1.44
2023-01-28T11:32:59.543Z,1.48
2023-01-28T11:34:03.736Z,1.47
2023-01-28T11:35:07.912Z,1.41
2023-01-28T11:36:12.129Z,1.31
2023-01-28T11:37:16.178Z,1.25
2023-01-28T11:38:20.406Z,1.19
2023-01-28T11:39:24.456Z,1.23
2023-01-28T11:40:28.818Z,1.23
2023-01-28T11:41:33.010Z,1.17
2023-01-28T11:42:38.060Z,1.15
2023-01-28T11:43:41.971Z,1.14
2023-01-28T11:44:46.219Z,1.12
2023-01-28T11:45:50.274Z,1.11
2023-01-28T11:46:54.439Z,1.10
2023-01-28T11:47:58.495Z,1.14
2023-01-28T11:49:02.782Z,1.20
2023-01-28T11:50:07.026Z,1.27
2023-01-28T11:51:11.134Z,1.26
2023-01-28T11:52:15.335Z,1.25
2023-01-28T11:53:19.496Z,1.29
2023-01-28T11:54:23.800Z,1.34
2023-01-28T11:55:27.977Z,1.33
2023-01-28T11:56:32.156Z,1.30
2023-01-28T11:57:36.437Z,1.27
2023-01-28T11:58:40.564Z,1.33
2023-01-28T11:59:44.909Z,1.36
2023-01-28T12:00:49.045Z,1.35
2023-01-28T12:01:53.369Z,1.33
2023-01-28T12:02:57.645Z,1.31
2023-01-28T12:04:01.715Z,1.23
2023-01-28T12:05:05.946Z,1.21
2023-01-28T12:06:10.172Z,1.17
2023-01-28T12:07:14.342Z,1.17
2023-01-28T12:08:32.590Z,1.19
2023-01-28T12:09:35.691Z,1.22
2023-01-28T12:10:39.730Z,1.23
2023-01-28T12:11:55.995Z,1.26
2023-01-28T12:12:58.206Z,1.29
2023-01-28T12:14:02.379Z,1.30
2023-01-28T12:15:06.426Z,1.27
2023-01-28T12:16:10.717Z,1.31
2023-01-28T12:17:14.940Z,1.32
2023-01-28T12:18:19.107Z,1.35
2023-01-28T12:19:23.147Z,1.36
2023-01-28T12:20:27.421Z,1.35
2023-01-28T12:21:31.741Z,1.37
2023-01-28T12:22:35.825Z,1.37
2023-01-28T12:23:39.910Z,1.36
2023-01-28T12:24:44.251Z,1.29
2023-01-28T12:25:48.407Z,1.15
2023-01-28T12:26:52.496Z,1.01
2023-01-28T12:27:56.588Z,0.93
2023-01-28T12:29:14.849Z,0.89
2023-01-28T12:30:18.222Z,0.96
2023-01-28T12:31:22.082Z,1.05
2023-01-28T12:32:32.185Z,1.11
2023-01-28T12:33:34.965Z,1.23
2023-01-28T12:34:39.136Z,1.31
2023-01-28T12:35:43.355Z,1.39
2023-01-28T12:36:47.711Z,1.49
2023-01-28T12:37:51.818Z,1.60
2023-01-28T12:38:56.020Z,1.64
2023-01-28T12:40:00.267Z,1.66
2023-01-28T12:41:04.398Z,1.72
2023-01-28T12:42:08.586Z,1.81
2023-01-28T12:43:12.784Z,1.88
2023-01-28T12:44:16.983Z,1.89
2023-01-28T12:45:22.170Z,1.82
2023-01-28T12:46:26.015Z,1.68
2023-01-28T12:47:30.305Z,1.59
2023-01-28T12:48:34.464Z,1.54
2023-01-28T12:49:38.653Z,1.42
2023-01-28T12:50:42.958Z,1.39
2023-01-28T12:51:47.267Z,1.40
2023-01-28T12:52:51.328Z,1.49
2023-01-28T12:53:55.531Z,1.44
2023-01-28T12:54:59.791Z,1.46
2023-01-28T12:56:03.996Z,1.58
2023-01-28T12:57:11.287Z,1.72
2023-01-28T12:58:14.564Z,1.86
2023-01-28T12:59:18.839Z,2.05
2023-01-28T13:00:22.986Z,2.22
2023-01-28T13:01:27.203Z,2.34
2023-01-28T13:02:31.504Z,2.48
2023-01-28T13:03:35.684Z,2.63
2023-01-28T13:04:40.144Z,2.75
2023-01-28T13:05:44.106Z,2.86
2023-01-28T13:06:48.280Z,2.97
2023-01-28T13:07:52.422Z,3.06
2023-01-28T13:08:56.775Z,3.16
2023-01-28T13:10:00.858Z,2.98
2023-01-28T13:11:04.998Z,2.74
2023-01-28T13:12:09.293Z,2.56
2023-01-28T13:13:13.710Z,2.38
2023-01-28T13:14:17.812Z,2.30
2023-01-28T13:15:21.955Z,2.22
2023-01-28T13:16:36.683Z,2.30
2023-01-28T13:17:30.244Z,2.37
2023-01-28T13:18:34.514Z,2.55
2023-01-28T13:19:38.732Z,2.65
2023-01-28T13:20:42.971Z,2.80
2023-01-28T13:21:49.422Z,2.94
2023-01-28T13:22:51.401Z,3.04
2023-01-28T13:23:55.639Z,3.03
2023-01-28T13:24:59.786Z,3.01
2023-01-28T13:26:03.995Z,3.04
2023-01-28T13:27:09.119Z,3.05
2023-01-28T13:28:12.921Z,3.08
2023-01-28T13:29:17.229Z,3.08
2023-01-28T13:30:21.363Z,3.07
2023-01-28T13:31:25.671Z,2.99
2023-01-28T13:32:29.934Z,2.85
2023-01-28T13:33:33.943Z,2.87
2023-01-28T13:34:38.243Z,2.90
2023-01-28T13:35:42.498Z,2.89
2023-01-28T13:36:46.738Z,2.89
2023-01-28T13:37:50.900Z,2.72
2023-01-28T13:38:55.141Z,2.37
2023-01-28T13:39:59.379Z,2.22
2023-01-28T13:41:03.569Z,2.05
2023-01-28T13:42:07.749Z,1.86
2023-01-28T13:43:11.952Z,1.59
2023-01-28T13:44:16.255Z,1.41
2023-01-28T13:45:20.399Z,1.26
2023-01-28T13:46:24.497Z,1.23
2023-01-28T13:47:28.610Z,1.26
2023-01-28T13:48:32.845Z,1.30
2023-01-28T13:49:36.937Z,1.28
2023-01-28T13:50:41.187Z,1.25
2023-01-28T13:51:45.464Z,1.20
2023-01-28T13:52:49.547Z,1.25
2023-01-28T13:53:53.938Z,1.19
2023-01-28T13:54:57.976Z,1.08
2023-01-28T13:56:02.177Z,1.01
2023-01-28T13:57:12.412Z,0.95
2023-01-28T13:58:15.092Z,0.93
2023-01-28T13:59:19.306Z,0.82
2023-01-28T14:00:26.285Z,0.77
2023-01-28T14:01:27.768Z,0.73
2023-01-28T14:02:32.024Z,0.69
2023-01-28T14:03:36.218Z,0.70
2023-01-28T14:04:40.514Z,0.72
2023-01-28T14:05:44.523Z,0.68
2023-01-28T14:06:48.779Z,0.63
2023-01-28T14:07:53.000Z,0.69
2023-01-28T14:08:57.184Z,0.73
2023-01-28T14:10:01.434Z,0.80
2023-01-28T14:11:05.580Z,0.92
2023-01-28T14:12:09.713Z,0.93
2023-01-28T14:13:13.923Z,0.96
2023-01-28T14:14:18.079Z,1.00
2023-01-28T14:15:22.339Z,1.00
2023-01-28T14:16:26.476Z,1.03
2023-01-28T14:17:30.678Z,1.04
2023-01-28T14:18:34.863Z,0.98
2023-01-28T14:19:39.138Z,0.95